Pintail — WDF5177 — position and weather

sailwx.info

Track history (hours):
 
Tides and Currents Weather Stations Pressure Air Temp Water Temp Dewpoint Dewpoint Depression Visibility Wind Speed Wind Dir Waves Ship Positions

Pintail

Owner: Pintail Marine Services, Inc, Friday Harbor, WA. More information available from US FCC via Universal Licensing System and Coast Guard Vessel Documentation Center.

Last reported at 2015-Jul-28 00:32 UTC. Time now 2015-Jul-28 01:23 UTC.
Position N 48°32' W 122°60'.

Length 19 m.

Type: Towing. MMSI: 367460260.

Date/timePositionNaut miles runAvg speedWind from/ knotsBaromVisibWave heightAir tempDewpointWater temp
2015-Jul-28 00:32N 48°32' W 122°60'0 0.0
2015-Jul-27 23:32N 48°32' W 122°60'0 0.0
2015-Jul-27 22:29N 48°32' W 122°60'0 0.0
2015-Jul-27 21:29N 48°32' W 122°60'0 0.0
2015-Jul-27 20:32N 48°32' W 122°60'2 2.5
2015-Jul-27 19:42N 48°33' W 122°57'1 6.2
2015-Jul-27 19:33N 48°33' W 122°56'5 5.0
2015-Jul-27 18:36N 48°32' W 122°49'1 6.9
2015-Jul-27 18:31N 48°32' W 122°48'6 6.0
2015-Jul-27 17:28N 48°31' W 122°38'2 1.7
2015-Jul-27 16:21N 48°32' W 122°41'5 6.2
2015-Jul-27 15:30N 48°32' W 122°49'5 5.4
2015-Jul-27 14:33N 48°33' W 122°57'2 2.4
2015-Jul-27 13:32N 48°32' W 122°60'0 0.0
2015-Jul-27 12:32N 48°32' W 122°60'0 0.0
2015-Jul-27 11:32N 48°32' W 122°60'0 0.0
2015-Jul-27 10:32N 48°32' W 122°60'0 0.0
2015-Jul-27 10:26N 48°32' W 122°60'0 0.0
2015-Jul-27 09:32N 48°32' W 122°60'0 0.0
2015-Jul-27 08:32N 48°32' W 122°60'0 0.0
2015-Jul-27 07:32N 48°32' W 122°60'0 0.0
2015-Jul-27 06:32N 48°32' W 122°60'0 0.0
2015-Jul-27 05:32N 48°32' W 122°60'0 0.0
2015-Jul-27 04:29N 48°32' W 122°60'0 0.0
2015-Jul-27 03:32N 48°32' W 122°60'0 0.0
2015-Jul-27 02:32N 48°32' W 122°60'0 0.0
2015-Jul-27 01:32N 48°32' W 122°60'0 0.0
2015-Jul-27 00:32N 48°32' W 122°60'0 0.0
2015-Jul-26 23:32N 48°32' W 122°60'0 0.0
2015-Jul-26 22:32N 48°32' W 122°60'0 0.0
2015-Jul-26 21:32N 48°32' W 122°60'0 0.0
2015-Jul-26 20:32N 48°32' W 122°60'0 0.0
2015-Jul-26 19:32N 48°32' W 122°60'0 0.0
2015-Jul-26 18:32N 48°32' W 122°60'0 0.0
2015-Jul-26 17:32N 48°32' W 122°60'0 0.0
2015-Jul-26 16:32N 48°32' W 122°60'0 0.0
2015-Jul-26 15:32N 48°32' W 122°60'0 0.0
2015-Jul-26 14:29N 48°32' W 122°60'0 0.0
2015-Jul-26 13:32N 48°32' W 122°60'0 0.0
2015-Jul-26 12:32N 48°32' W 122°60'0 0.0
2015-Jul-26 11:32N 48°32' W 122°60'0 0.0
2015-Jul-26 10:32N 48°32' W 122°60'0 0.0
2015-Jul-26 09:29N 48°32' W 122°60'0 0.0
2015-Jul-26 08:32N 48°32' W 122°60'0 0.0
2015-Jul-26 07:32N 48°32' W 122°60'0 0.0
2015-Jul-26 06:32N 48°32' W 122°60'0 0.0
2015-Jul-26 05:32N 48°32' W 122°60'0 0.0
2015-Jul-26 04:29N 48°32' W 122°60'0 0.0
2015-Jul-26 03:32N 48°32' W 122°60'0 0.0
2015-Jul-26 02:32N 48°32' W 122°60'0 0.0
2015-Jul-26 01:32N 48°32' W 122°60'0 0.0
2015-Jul-26 00:32N 48°32' W 122°60'0 0.0
2015-Jul-25 23:32N 48°32' W 122°60'0 0.0
2015-Jul-25 22:32N 48°32' W 122°60'0 0.0
2015-Jul-25 21:32N 48°32' W 122°60'0 0.0
2015-Jul-25 20:32N 48°32' W 122°60'0 0.0
2015-Jul-25 19:32N 48°32' W 122°60'0 0.0
2015-Jul-25 18:29N 48°32' W 122°60'0 0.0
2015-Jul-25 17:32N 48°32' W 122°60'0 0.0
2015-Jul-25 16:32N 48°32' W 122°60'0 0.0
2015-Jul-25 15:32N 48°32' W 122°60'0 0.0
2015-Jul-25 14:32N 48°32' W 122°60'0 0.0
2015-Jul-25 13:32N 48°32' W 122°60'0 0.0
2015-Jul-25 12:32N 48°32' W 122°60'0 0.0
2015-Jul-25 11:32N 48°32' W 122°60'0 0.0
2015-Jul-25 10:32N 48°32' W 122°60'0 0.0
2015-Jul-25 09:32N 48°32' W 122°60'0 0.0
2015-Jul-25 08:32N 48°32' W 122°60'0 0.0
2015-Jul-25 07:32N 48°32' W 122°60'0 0.0
2015-Jul-25 06:32N 48°32' W 122°60'0 0.0
2015-Jul-25 05:32N 48°32' W 122°60'0 0.0
2015-Jul-25 04:32N 48°32' W 122°60'0 0.0
2015-Jul-25 03:32N 48°32' W 122°60'0 0.0
2015-Jul-25 02:32N 48°32' W 122°60'0 0.0
2015-Jul-25 01:32N 48°32' W 122°60'0 0.0
2015-Jul-25 00:33N 48°32' W 122°60'0 0.4
2015-Jul-24 23:32N 48°32' W 123°00'0 0.5
2015-Jul-24 22:33N 48°32' W 122°60'0 0.0
2015-Jul-24 21:32N 48°32' W 122°60'0 0.0
2015-Jul-24 20:32N 48°32' W 122°60'0 0.0
2015-Jul-24 19:32N 48°32' W 122°60'0 0.0
2015-Jul-24 18:32N 48°32' W 122°60'0 0.0
2015-Jul-24 17:32N 48°32' W 122°60'0 0.0
2015-Jul-24 16:32N 48°32' W 122°60'0 0.0
2015-Jul-24 15:29N 48°32' W 122°60'0 0.0
2015-Jul-24 14:32N 48°32' W 122°60'0 0.0
2015-Jul-24 13:32N 48°32' W 122°60'0 0.0
2015-Jul-24 12:29N 48°32' W 122°60'0 0.0
2015-Jul-24 11:32N 48°32' W 122°60'0 0.0
2015-Jul-24 10:32N 48°32' W 122°60'0 0.0
2015-Jul-24 09:32N 48°32' W 122°60'0 0.0
2015-Jul-24 08:32N 48°32' W 122°60'0 0.0
2015-Jul-24 07:32N 48°32' W 122°60'0 0.0
2015-Jul-24 06:29N 48°32' W 122°60'0 0.0
2015-Jul-24 05:32N 48°32' W 122°60'0 0.0
2015-Jul-24 04:32N 48°32' W 122°60'0 0.0
2015-Jul-24 03:32N 48°32' W 122°60'0 0.0
2015-Jul-24 02:29N 48°32' W 122°60'0 0.0
2015-Jul-24 01:32N 48°32' W 122°60'0 0.0
2015-Jul-24 00:32N 48°32' W 122°60'0 0.0
2015-Jul-23 23:32N 48°32' W 122°60'0 0.0
2015-Jul-23 22:28N 48°32' W 122°60'0 0.5
2015-Jul-23 21:31N 48°32' W 123°00'1 0.5
2015-Jul-23 20:30N 48°32' W 123°00'5 5.4
2015-Jul-23 19:34N 48°34' W 122°53'6 6.0
2015-Jul-23 18:31N 48°32' W 122°45'6 5.4
2015-Jul-23 17:30N 48°31' W 122°36'9 4.4
2015-Jul-23 15:33N 48°32' W 122°49'5 5.4
2015-Jul-23 14:33N 48°33' W 122°57'2 1.9
2015-Jul-23 13:29N 48°32' W 122°60'0 0.0
2015-Jul-23 12:26N 48°32' W 122°60'0 0.0
2015-Jul-23 11:32N 48°32' W 122°60'0 0.0
2015-Jul-23 10:32N 48°32' W 122°60'0 0.0
2015-Jul-23 09:32N 48°32' W 122°60'0 0.0
2015-Jul-23 08:32N 48°32' W 122°60'0 0.0
2015-Jul-23 07:32N 48°32' W 122°60'0 0.0
2015-Jul-23 06:32N 48°32' W 122°60'0 0.0
2015-Jul-23 05:32N 48°32' W 122°60'0 0.0
2015-Jul-23 04:32N 48°32' W 122°60'0 0.0
2015-Jul-23 03:32N 48°32' W 122°60'0 0.0
2015-Jul-23 02:29N 48°32' W 122°60'0 0.0
2015-Jul-23 01:32N 48°32' W 122°60'0 0.0
2015-Jul-23 00:32N 48°32' W 122°60'0 0.0
2015-Jul-22 23:32N 48°32' W 122°60'0 0.0
2015-Jul-22 22:32N 48°32' W 122°60'0 0.0
2015-Jul-22 21:32N 48°32' W 122°60'0 0.0
2015-Jul-22 20:32N 48°32' W 122°60'0 0.0
2015-Jul-22 13:33N 48°32' W 122°60'0 0.1
2015-Jul-22 12:33N 48°32' W 122°60'0 0.0
2015-Jul-22 11:33N 48°32' W 122°60'0 0.0
2015-Jul-22 10:33N 48°32' W 122°60'0 0.0
2015-Jul-22 09:33N 48°32' W 122°60'0 0.0
2015-Jul-22 08:33N 48°32' W 122°60'0 0.0
2015-Jul-22 07:26N 48°32' W 122°60'0 0.0
2015-Jul-22 06:32N 48°32' W 122°60'0 0.0
2015-Jul-22 05:32N 48°32' W 122°60'0 0.0
2015-Jul-22 04:32N 48°32' W 122°60'0 0.0
2015-Jul-22 03:32N 48°32' W 122°60'0 0.0
2015-Jul-22 02:32N 48°32' W 122°60'0 0.0
2015-Jul-22 01:32N 48°32' W 122°60'0 0.0
2015-Jul-22 00:32N 48°32' W 122°60'0 0.0
2015-Jul-21 23:32N 48°32' W 122°60'0 0.0
2015-Jul-21 22:32N 48°32' W 122°60'0 0.0
2015-Jul-21 21:32N 48°32' W 122°60'0 0.0
2015-Jul-21 20:29N 48°32' W 122°60'0 0.0
2015-Jul-21 19:32N 48°32' W 122°60'0 0.0
2015-Jul-21 18:32N 48°32' W 122°60'0 0.0
2015-Jul-21 17:32N 48°32' W 122°60'0 0.0
2015-Jul-21 16:32N 48°32' W 122°60'0 0.0
2015-Jul-21 15:32N 48°32' W 122°60'0 0.0
2015-Jul-21 14:32N 48°32' W 122°60'0 0.0
2015-Jul-21 13:32N 48°32' W 122°60'0 0.0
2015-Jul-21 12:32N 48°32' W 122°60'0 0.0
2015-Jul-21 11:32N 48°32' W 122°60'0 0.0
2015-Jul-21 10:32N 48°32' W 122°60'0 0.0
2015-Jul-21 09:32N 48°32' W 122°60'0 0.0
2015-Jul-21 08:32N 48°32' W 122°60'0 0.0
2015-Jul-21 07:32N 48°32' W 122°60'0 0.0
2015-Jul-21 06:32N 48°32' W 122°60'0 0.0
2015-Jul-21 05:32N 48°32' W 122°60'0 0.0
2015-Jul-21 04:32N 48°32' W 122°60'0 0.0
2015-Jul-21 03:30N 48°32' W 122°60'0 0.0
2015-Jul-21 02:29N 48°32' W 122°60'0 0.0
2015-Jul-21 01:08N 48°32' W 122°60'0 0.0
2015-Jul-21 00:33N 48°32' W 122°60'0 0.0
2015-Jul-20 23:32N 48°32' W 122°60'0 0.0
2015-Jul-20 22:29N 48°32' W 122°60'0 0.0
2015-Jul-20 21:32N 48°32' W 122°60'0 0.0
2015-Jul-20 20:33N 48°32' W 122°60'3 3.2
2015-Jul-20 19:33N 48°33' W 122°56'5 5.2
2015-Jul-20 18:33N 48°32' W 122°48'7 6.9
2015-Jul-20 17:33N 48°31' W 122°38'1 1.3
2015-Jul-20 16:31N 48°32' W 122°40'3 6.3
2015-Jul-20 15:59N 48°32' W 122°45'3 6.0
2015-Jul-20 15:29N 48°32' W 122°49'5 5.3
2015-Jul-20 14:33N 48°33' W 122°57'2 2.3
2015-Jul-20 13:29N 48°32' W 122°60'0 0.0
2015-Jul-20 12:27N 48°32' W 122°60'0 0.0
2015-Jul-20 11:30N 48°32' W 122°60'0 0.0
2015-Jul-20 10:33N 48°32' W 122°60'0 0.0
2015-Jul-20 09:33N 48°32' W 122°60'0 0.0
2015-Jul-20 08:33N 48°32' W 122°60'0 0.0
2015-Jul-20 07:33N 48°32' W 122°60'0 0.0
2015-Jul-20 06:30N 48°32' W 122°60'0 0.0
2015-Jul-20 05:33N 48°32' W 122°60'0 0.0
2015-Jul-20 04:33N 48°32' W 122°60'0 0.0
2015-Jul-20 03:33N 48°32' W 122°60'0 0.0
2015-Jul-20 02:33N 48°32' W 122°60'0 0.0
2015-Jul-20 01:32N 48°32' W 122°60'0 0.0
2015-Jul-20 00:32N 48°32' W 122°60'0 0.0
2015-Jul-19 23:32N 48°32' W 122°60'0 0.0
2015-Jul-19 22:32N 48°32' W 122°60'0 0.0
2015-Jul-19 21:29N 48°32' W 122°60'0 0.0
2015-Jul-19 20:32N 48°32' W 122°60'0 0.0
2015-Jul-19 19:32N 48°32' W 122°60'0 0.0
2015-Jul-19 18:29N 48°32' W 122°60'0 0.0
2015-Jul-19 17:33N 48°32' W 122°60'0 0.0
2015-Jul-19 16:33N 48°32' W 122°60'0 0.0
2015-Jul-19 15:33N 48°32' W 122°60'0 0.0
2015-Jul-19 14:33N 48°32' W 122°60'0 0.0
2015-Jul-19 13:33N 48°32' W 122°60'0 0.0
2015-Jul-19 12:33N 48°32' W 122°60'0 0.0
2015-Jul-19 11:33N 48°32' W 122°60'0 0.0
2015-Jul-19 10:33N 48°32' W 122°60'0 0.0
2015-Jul-19 09:33N 48°32' W 122°60'0 0.0
2015-Jul-19 08:33N 48°32' W 122°60'0 0.0
2015-Jul-19 07:33N 48°32' W 122°60'0 0.0
2015-Jul-19 06:33N 48°32' W 122°60'0 0.0
2015-Jul-19 05:33N 48°32' W 122°60'0 0.0
2015-Jul-19 04:33N 48°32' W 122°60'0 0.0
2015-Jul-19 00:28N 48°32' W 122°60'0 0.0
2015-Jul-18 23:33N 48°32' W 122°60'0 0.0
2015-Jul-18 22:33N 48°32' W 122°60'0 0.0
2015-Jul-18 21:33N 48°32' W 122°60'0 0.0
2015-Jul-18 20:33N 48°32' W 122°60'0 0.0
2015-Jul-18 19:33N 48°32' W 122°60'0 0.0
2015-Jul-18 18:33N 48°32' W 122°60'0 0.0
2015-Jul-18 17:33N 48°32' W 122°60'0 0.0
2015-Jul-18 16:30N 48°32' W 122°60'0 0.0
2015-Jul-18 15:33N 48°32' W 122°60'0 0.0
2015-Jul-18 14:33N 48°32' W 122°60'0 0.0
2015-Jul-18 13:33N 48°32' W 122°60'0 0.0
2015-Jul-18 12:30N 48°32' W 122°60'0 0.0
2015-Jul-18 11:33N 48°32' W 122°60'0 0.0
2015-Jul-18 10:27N 48°32' W 122°60'0 0.0
2015-Jul-18 09:33N 48°32' W 122°60'0 0.0
2015-Jul-18 08:33N 48°32' W 122°60'0 0.0
2015-Jul-18 07:33N 48°32' W 122°60'0 0.0
2015-Jul-18 06:33N 48°32' W 122°60'0 0.0
2015-Jul-18 05:33N 48°32' W 122°60'0 0.0
2015-Jul-18 04:33N 48°32' W 122°60'0 0.0
2015-Jul-18 03:33N 48°32' W 122°60'0 0.0
2015-Jul-18 02:33N 48°32' W 122°60'0 0.0
2015-Jul-18 01:33N 48°32' W 122°60'0 0.0
2015-Jul-18 00:33N 48°32' W 122°60'  
Track history (hours):
 
Tides and Currents Weather Stations Pressure Air Temp Water Temp Dewpoint Dewpoint Depression Visibility Wind Speed Wind Dir Waves Ship Positions

Pintail

Owner: Pintail Marine Services, Inc, Friday Harbor, WA. More information available from US FCC via Universal Licensing System and Coast Guard Vessel Documentation Center.

Last reported at 2015-Jul-28 00:32 UTC. Time now 2015-Jul-28 01:23 UTC.
Position N 48°32' W 122°60'.

Length 19 m.

Type: Towing. MMSI: 367460260.

Date/timePositionNaut miles runAvg speedWind from/ knotsBaromVisibWave heightAir tempDewpointWater temp
2015-Jul-28 00:32N 48°32' W 122°60'0 0.0
2015-Jul-27 23:32N 48°32' W 122°60'0 0.0
2015-Jul-27 22:29N 48°32' W 122°60'0 0.0
2015-Jul-27 21:29N 48°32' W 122°60'0 0.0
2015-Jul-27 20:32N 48°32' W 122°60'2 2.5
2015-Jul-27 19:42N 48°33' W 122°57'1 6.2
2015-Jul-27 19:33N 48°33' W 122°56'5 5.0
2015-Jul-27 18:36N 48°32' W 122°49'1 6.9
2015-Jul-27 18:31N 48°32' W 122°48'6 6.0
2015-Jul-27 17:28N 48°31' W 122°38'2 1.7
2015-Jul-27 16:21N 48°32' W 122°41'5 6.2
2015-Jul-27 15:30N 48°32' W 122°49'5 5.4
2015-Jul-27 14:33N 48°33' W 122°57'2 2.4
2015-Jul-27 13:32N 48°32' W 122°60'0 0.0
2015-Jul-27 12:32N 48°32' W 122°60'0 0.0
2015-Jul-27 11:32N 48°32' W 122°60'0 0.0
2015-Jul-27 10:32N 48°32' W 122°60'0 0.0
2015-Jul-27 10:26N 48°32' W 122°60'0 0.0
2015-Jul-27 09:32N 48°32' W 122°60'0 0.0
2015-Jul-27 08:32N 48°32' W 122°60'0 0.0
2015-Jul-27 07:32N 48°32' W 122°60'0 0.0
2015-Jul-27 06:32N 48°32' W 122°60'0 0.0
2015-Jul-27 05:32N 48°32' W 122°60'0 0.0
2015-Jul-27 04:29N 48°32' W 122°60'0 0.0
2015-Jul-27 03:32N 48°32' W 122°60'0 0.0
2015-Jul-27 02:32N 48°32' W 122°60'0 0.0
2015-Jul-27 01:32N 48°32' W 122°60'0 0.0
2015-Jul-27 00:32N 48°32' W 122°60'0 0.0
2015-Jul-26 23:32N 48°32' W 122°60'0 0.0
2015-Jul-26 22:32N 48°32' W 122°60'0 0.0
2015-Jul-26 21:32N 48°32' W 122°60'0 0.0
2015-Jul-26 20:32N 48°32' W 122°60'0 0.0
2015-Jul-26 19:32N 48°32' W 122°60'0 0.0
2015-Jul-26 18:32N 48°32' W 122°60'0 0.0
2015-Jul-26 17:32N 48°32' W 122°60'0 0.0
2015-Jul-26 16:32N 48°32' W 122°60'0 0.0
2015-Jul-26 15:32N 48°32' W 122°60'0 0.0
2015-Jul-26 14:29N 48°32' W 122°60'0 0.0
2015-Jul-26 13:32N 48°32' W 122°60'0 0.0
2015-Jul-26 12:32N 48°32' W 122°60'0 0.0
2015-Jul-26 11:32N 48°32' W 122°60'0 0.0
2015-Jul-26 10:32N 48°32' W 122°60'0 0.0
2015-Jul-26 09:29N 48°32' W 122°60'0 0.0
2015-Jul-26 08:32N 48°32' W 122°60'0 0.0
2015-Jul-26 07:32N 48°32' W 122°60'0 0.0
2015-Jul-26 06:32N 48°32' W 122°60'0 0.0
2015-Jul-26 05:32N 48°32' W 122°60'0 0.0
2015-Jul-26 04:29N 48°32' W 122°60'0 0.0
2015-Jul-26 03:32N 48°32' W 122°60'0 0.0
2015-Jul-26 02:32N 48°32' W 122°60'0 0.0
2015-Jul-26 01:32N 48°32' W 122°60'0 0.0
2015-Jul-26 00:32N 48°32' W 122°60'0 0.0
2015-Jul-25 23:32N 48°32' W 122°60'0 0.0
2015-Jul-25 22:32N 48°32' W 122°60'0 0.0
2015-Jul-25 21:32N 48°32' W 122°60'0 0.0
2015-Jul-25 20:32N 48°32' W 122°60'0 0.0
2015-Jul-25 19:32N 48°32' W 122°60'0 0.0
2015-Jul-25 18:29N 48°32' W 122°60'0 0.0
2015-Jul-25 17:32N 48°32' W 122°60'0 0.0
2015-Jul-25 16:32N 48°32' W 122°60'0 0.0
2015-Jul-25 15:32N 48°32' W 122°60'0 0.0
2015-Jul-25 14:32N 48°32' W 122°60'0 0.0
2015-Jul-25 13:32N 48°32' W 122°60'0 0.0
2015-Jul-25 12:32N 48°32' W 122°60'0 0.0
2015-Jul-25 11:32N 48°32' W 122°60'0 0.0
2015-Jul-25 10:32N 48°32' W 122°60'0 0.0
2015-Jul-25 09:32N 48°32' W 122°60'0 0.0
2015-Jul-25 08:32N 48°32' W 122°60'0 0.0
2015-Jul-25 07:32N 48°32' W 122°60'0 0.0
2015-Jul-25 06:32N 48°32' W 122°60'0 0.0
2015-Jul-25 05:32N 48°32' W 122°60'0 0.0
2015-Jul-25 04:32N 48°32' W 122°60'0 0.0
2015-Jul-25 03:32N 48°32' W 122°60'0 0.0
2015-Jul-25 02:32N 48°32' W 122°60'0 0.0
2015-Jul-25 01:32N 48°32' W 122°60'0 0.0
2015-Jul-25 00:33N 48°32' W 122°60'0 0.4
2015-Jul-24 23:32N 48°32' W 123°00'0 0.5
2015-Jul-24 22:33N 48°32' W 122°60'0 0.0
2015-Jul-24 21:32N 48°32' W 122°60'0 0.0
2015-Jul-24 20:32N 48°32' W 122°60'0 0.0
2015-Jul-24 19:32N 48°32' W 122°60'0 0.0
2015-Jul-24 18:32N 48°32' W 122°60'0 0.0
2015-Jul-24 17:32N 48°32' W 122°60'0 0.0
2015-Jul-24 16:32N 48°32' W 122°60'0 0.0
2015-Jul-24 15:29N 48°32' W 122°60'0 0.0
2015-Jul-24 14:32N 48°32' W 122°60'0 0.0
2015-Jul-24 13:32N 48°32' W 122°60'0 0.0
2015-Jul-24 12:29N 48°32' W 122°60'0 0.0
2015-Jul-24 11:32N 48°32' W 122°60'0 0.0
2015-Jul-24 10:32N 48°32' W 122°60'0 0.0
2015-Jul-24 09:32N 48°32' W 122°60'0 0.0
2015-Jul-24 08:32N 48°32' W 122°60'0 0.0
2015-Jul-24 07:32N 48°32' W 122°60'0 0.0
2015-Jul-24 06:29N 48°32' W 122°60'0 0.0
2015-Jul-24 05:32N 48°32' W 122°60'0 0.0
2015-Jul-24 04:32N 48°32' W 122°60'0 0.0
2015-Jul-24 03:32N 48°32' W 122°60'0 0.0
2015-Jul-24 02:29N 48°32' W 122°60'0 0.0
2015-Jul-24 01:32N 48°32' W 122°60'0 0.0
2015-Jul-24 00:32N 48°32' W 122°60'0 0.0
2015-Jul-23 23:32N 48°32' W 122°60'0 0.0
2015-Jul-23 22:28N 48°32' W 122°60'0 0.5
2015-Jul-23 21:31N 48°32' W 123°00'1 0.5
2015-Jul-23 20:30N 48°32' W 123°00'5 5.4
2015-Jul-23 19:34N 48°34' W 122°53'6 6.0
2015-Jul-23 18:31N 48°32' W 122°45'6 5.4
2015-Jul-23 17:30N 48°31' W 122°36'9 4.4
2015-Jul-23 15:33N 48°32' W 122°49'5 5.4
2015-Jul-23 14:33N 48°33' W 122°57'2 1.9
2015-Jul-23 13:29N 48°32' W 122°60'0 0.0
2015-Jul-23 12:26N 48°32' W 122°60'0 0.0
2015-Jul-23 11:32N 48°32' W 122°60'0 0.0
2015-Jul-23 10:32N 48°32' W 122°60'0 0.0
2015-Jul-23 09:32N 48°32' W 122°60'0 0.0
2015-Jul-23 08:32N 48°32' W 122°60'0 0.0
2015-Jul-23 07:32N 48°32' W 122°60'0 0.0
2015-Jul-23 06:32N 48°32' W 122°60'0 0.0
2015-Jul-23 05:32N 48°32' W 122°60'0 0.0
2015-Jul-23 04:32N 48°32' W 122°60'0 0.0
2015-Jul-23 03:32N 48°32' W 122°60'0 0.0
2015-Jul-23 02:29N 48°32' W 122°60'0 0.0
2015-Jul-23 01:32N 48°32' W 122°60'0 0.0
2015-Jul-23 00:32N 48°32' W 122°60'0 0.0
2015-Jul-22 23:32N 48°32' W 122°60'0 0.0
2015-Jul-22 22:32N 48°32' W 122°60'0 0.0
2015-Jul-22 21:32N 48°32' W 122°60'0 0.0
2015-Jul-22 20:32N 48°32' W 122°60'0 0.0
2015-Jul-22 13:33N 48°32' W 122°60'0 0.1
2015-Jul-22 12:33N 48°32' W 122°60'0 0.0
2015-Jul-22 11:33N 48°32' W 122°60'0 0.0
2015-Jul-22 10:33N 48°32' W 122°60'0 0.0
2015-Jul-22 09:33N 48°32' W 122°60'0 0.0
2015-Jul-22 08:33N 48°32' W 122°60'0 0.0
2015-Jul-22 07:26N 48°32' W 122°60'0 0.0
2015-Jul-22 06:32N 48°32' W 122°60'0 0.0
2015-Jul-22 05:32N 48°32' W 122°60'0 0.0
2015-Jul-22 04:32N 48°32' W 122°60'0 0.0
2015-Jul-22 03:32N 48°32' W 122°60'0 0.0
2015-Jul-22 02:32N 48°32' W 122°60'0 0.0
2015-Jul-22 01:32N 48°32' W 122°60'0 0.0
2015-Jul-22 00:32N 48°32' W 122°60'0 0.0
2015-Jul-21 23:32N 48°32' W 122°60'0 0.0
2015-Jul-21 22:32N 48°32' W 122°60'0 0.0
2015-Jul-21 21:32N 48°32' W 122°60'0 0.0
2015-Jul-21 20:29N 48°32' W 122°60'0 0.0
2015-Jul-21 19:32N 48°32' W 122°60'0 0.0
2015-Jul-21 18:32N 48°32' W 122°60'0 0.0
2015-Jul-21 17:32N 48°32' W 122°60'0 0.0
2015-Jul-21 16:32N 48°32' W 122°60'0 0.0
2015-Jul-21 15:32N 48°32' W 122°60'0 0.0
2015-Jul-21 14:32N 48°32' W 122°60'0 0.0
2015-Jul-21 13:32N 48°32' W 122°60'0 0.0
2015-Jul-21 12:32N 48°32' W 122°60'0 0.0
2015-Jul-21 11:32N 48°32' W 122°60'0 0.0
2015-Jul-21 10:32N 48°32' W 122°60'0 0.0
2015-Jul-21 09:32N 48°32' W 122°60'0 0.0
2015-Jul-21 08:32N 48°32' W 122°60'0 0.0
2015-Jul-21 07:32N 48°32' W 122°60'0 0.0
2015-Jul-21 06:32N 48°32' W 122°60'0 0.0
2015-Jul-21 05:32N 48°32' W 122°60'0 0.0
2015-Jul-21 04:32N 48°32' W 122°60'0 0.0
2015-Jul-21 03:30N 48°32' W 122°60'0 0.0
2015-Jul-21 02:29N 48°32' W 122°60'0 0.0
2015-Jul-21 01:08N 48°32' W 122°60'0 0.0
2015-Jul-21 00:33N 48°32' W 122°60'0 0.0
2015-Jul-20 23:32N 48°32' W 122°60'0 0.0
2015-Jul-20 22:29N 48°32' W 122°60'0 0.0
2015-Jul-20 21:32N 48°32' W 122°60'0 0.0
2015-Jul-20 20:33N 48°32' W 122°60'3 3.2
2015-Jul-20 19:33N 48°33' W 122°56'5 5.2
2015-Jul-20 18:33N 48°32' W 122°48'7 6.9
2015-Jul-20 17:33N 48°31' W 122°38'1 1.3
2015-Jul-20 16:31N 48°32' W 122°40'3 6.3
2015-Jul-20 15:59N 48°32' W 122°45'3 6.0
2015-Jul-20 15:29N 48°32' W 122°49'5 5.3
2015-Jul-20 14:33N 48°33' W 122°57'2 2.3
2015-Jul-20 13:29N 48°32' W 122°60'0 0.0
2015-Jul-20 12:27N 48°32' W 122°60'0 0.0
2015-Jul-20 11:30N 48°32' W 122°60'0 0.0
2015-Jul-20 10:33N 48°32' W 122°60'0 0.0
2015-Jul-20 09:33N 48°32' W 122°60'0 0.0
2015-Jul-20 08:33N 48°32' W 122°60'0 0.0
2015-Jul-20 07:33N 48°32' W 122°60'0 0.0
2015-Jul-20 06:30N 48°32' W 122°60'0 0.0
2015-Jul-20 05:33N 48°32' W 122°60'0 0.0
2015-Jul-20 04:33N 48°32' W 122°60'0 0.0
2015-Jul-20 03:33N 48°32' W 122°60'0 0.0
2015-Jul-20 02:33N 48°32' W 122°60'0 0.0
2015-Jul-20 01:32N 48°32' W 122°60'0 0.0
2015-Jul-20 00:32N 48°32' W 122°60'0 0.0
2015-Jul-19 23:32N 48°32' W 122°60'0 0.0
2015-Jul-19 22:32N 48°32' W 122°60'0 0.0
2015-Jul-19 21:29N 48°32' W 122°60'0 0.0
2015-Jul-19 20:32N 48°32' W 122°60'0 0.0
2015-Jul-19 19:32N 48°32' W 122°60'0 0.0
2015-Jul-19 18:29N 48°32' W 122°60'0 0.0
2015-Jul-19 17:33N 48°32' W 122°60'0 0.0
2015-Jul-19 16:33N 48°32' W 122°60'0 0.0
2015-Jul-19 15:33N 48°32' W 122°60'0 0.0
2015-Jul-19 14:33N 48°32' W 122°60'0 0.0
2015-Jul-19 13:33N 48°32' W 122°60'0 0.0
2015-Jul-19 12:33N 48°32' W 122°60'0 0.0
2015-Jul-19 11:33N 48°32' W 122°60'0 0.0
2015-Jul-19 10:33N 48°32' W 122°60'0 0.0
2015-Jul-19 09:33N 48°32' W 122°60'0 0.0
2015-Jul-19 08:33N 48°32' W 122°60'0 0.0
2015-Jul-19 07:33N 48°32' W 122°60'0 0.0
2015-Jul-19 06:33N 48°32' W 122°60'0 0.0
2015-Jul-19 05:33N 48°32' W 122°60'0 0.0
2015-Jul-19 04:33N 48°32' W 122°60'0 0.0
2015-Jul-19 00:28N 48°32' W 122°60'0 0.0
2015-Jul-18 23:33N 48°32' W 122°60'0 0.0
2015-Jul-18 22:33N 48°32' W 122°60'0 0.0
2015-Jul-18 21:33N 48°32' W 122°60'0 0.0
2015-Jul-18 20:33N 48°32' W 122°60'0 0.0
2015-Jul-18 19:33N 48°32' W 122°60'0 0.0
2015-Jul-18 18:33N 48°32' W 122°60'0 0.0
2015-Jul-18 17:33N 48°32' W 122°60'0 0.0
2015-Jul-18 16:30N 48°32' W 122°60'0 0.0
2015-Jul-18 15:33N 48°32' W 122°60'0 0.0
2015-Jul-18 14:33N 48°32' W 122°60'0 0.0
2015-Jul-18 13:33N 48°32' W 122°60'0 0.0
2015-Jul-18 12:30N 48°32' W 122°60'0 0.0
2015-Jul-18 11:33N 48°32' W 122°60'0 0.0
2015-Jul-18 10:27N 48°32' W 122°60'0 0.0
2015-Jul-18 09:33N 48°32' W 122°60'0 0.0
2015-Jul-18 08:33N 48°32' W 122°60'0 0.0
2015-Jul-18 07:33N 48°32' W 122°60'0 0.0
2015-Jul-18 06:33N 48°32' W 122°60'0 0.0
2015-Jul-18 05:33N 48°32' W 122°60'0 0.0
2015-Jul-18 04:33N 48°32' W 122°60'0 0.0
2015-Jul-18 03:33N 48°32' W 122°60'0 0.0
2015-Jul-18 02:33N 48°32' W 122°60'0 0.0
2015-Jul-18 01:33N 48°32' W 122°60'0 0.0
2015-Jul-18 00:33N 48°32' W 122°60'  

Dump ship's entire track history